createdAt,value
2023-01-03T00:00:14.731Z,77.21
2023-01-03T00:05:16.824Z,77.06
2023-01-03T00:10:19.007Z,76.73
2023-01-03T00:15:21.052Z,76.97
2023-01-03T00:20:23.216Z,77.41
2023-01-03T00:25:26.825Z,78.10
2023-01-03T00:30:29.212Z,78.45
2023-01-03T00:35:31.625Z,78.74
2023-01-03T00:40:33.818Z,78.50
2023-01-03T00:45:38.847Z,80.46
2023-01-03T00:50:40.861Z,80.76
2023-01-03T00:55:42.972Z,81.64
2023-01-03T01:00:44.942Z,82.44
2023-01-03T01:05:46.921Z,83.39
2023-01-03T01:11:02.067Z,84.36
2023-01-03T01:16:18.166Z,85.02
2023-01-03T01:21:28.148Z,85.39
2023-01-03T01:26:30.668Z,84.47
2023-01-03T01:31:33.369Z,86.39
2023-01-03T01:36:38.053Z,84.30
2023-01-03T01:42:00.462Z,82.70
2023-01-03T01:47:03.211Z,83.52
2023-01-03T01:52:06.353Z,85.89
2023-01-03T01:57:14.772Z,87.31
2023-01-03T02:02:24.231Z,91.40
2023-01-03T02:07:26.701Z,82.72
2023-01-03T02:13:13.529Z,87.34
2023-01-03T02:18:46.856Z,87.85
2023-01-03T02:24:12.175Z,88.10
2023-01-03T02:29:23.436Z,89.22
2023-01-03T02:34:49.806Z,88.08
2023-01-03T02:40:00.909Z,88.01
2023-01-03T02:45:15.820Z,88.62
2023-01-03T02:50:22.402Z,90.40
2023-01-03T02:55:29.820Z,91.19
2023-01-03T03:00:35.153Z,91.24
2023-01-03T03:05:45.807Z,92.47
2023-01-03T03:11:07.804Z,90.62
2023-01-03T03:16:41.077Z,90.98
2023-01-03T03:22:02.502Z,89.92
2023-01-03T03:27:28.826Z,87.67
2023-01-03T03:32:34.339Z,87.48
2023-01-03T03:37:40.644Z,87.72
2023-01-03T03:43:16.663Z,89.36
2023-01-03T03:49:05.549Z,89.30
2023-01-03T03:54:16.081Z,84.31
2023-01-03T03:59:24.552Z,86.77
2023-01-03T04:04:33.374Z,88.14
2023-01-03T04:09:36.026Z,87.39
2023-01-03T04:14:38.379Z,89.54
2023-01-03T04:19:40.786Z,91.15
2023-01-03T04:24:43.210Z,92.13
2023-01-03T04:29:45.791Z,93.58
2023-01-03T04:34:48.274Z,92.86
2023-01-03T04:39:50.693Z,93.86
2023-01-03T04:44:53.430Z,94.43
2023-01-03T04:49:55.860Z,94.38
2023-01-03T04:54:58.270Z,94.93
2023-01-03T05:00:00.984Z,84.89
2023-01-03T05:05:03.620Z,88.18
2023-01-03T05:10:06.517Z,87.37
2023-01-03T05:15:09.475Z,84.38
2023-01-03T05:20:30.609Z,86.55
2023-01-03T05:25:51.295Z,85.93
2023-01-03T05:30:53.820Z,88.00
2023-01-03T05:35:56.484Z,90.81
2023-01-03T05:40:59.206Z,85.77
2023-01-03T05:46:02.066Z,90.06
2023-01-03T05:51:05.043Z,78.39
2023-01-03T05:56:07.638Z,85.48
2023-01-03T06:01:11.779Z,88.89
2023-01-03T06:06:15.917Z,86.57
2023-01-03T06:11:18.500Z,83.65
2023-01-03T06:16:40.239Z,81.06
2023-01-03T06:21:42.324Z,81.04
2023-01-03T06:26:44.338Z,80.62
2023-01-03T06:31:46.864Z,84.34
2023-01-03T06:36:50.416Z,86.65
2023-01-03T06:41:52.820Z,92.42
2023-01-03T06:47:14.030Z,96.65
2023-01-03T06:52:35.977Z,95.91
2023-01-03T06:57:38.626Z,99.11
2023-01-03T07:02:41.181Z,85.31
2023-01-03T07:07:43.898Z,96.32
2023-01-03T07:13:06.583Z,88.56
2023-01-03T07:18:09.016Z,97.49
2023-01-03T07:23:13.320Z,98.68
2023-01-03T07:28:16.937Z,100.00
2023-01-03T07:33:19.790Z,100.00
2023-01-03T07:38:22.218Z,89.02
2023-01-03T07:43:37.155Z,93.09
2023-01-03T07:48:40.441Z,100.00
2023-01-03T07:53:43.848Z,100.00
2023-01-03T07:58:47.654Z,100.00
2023-01-03T08:03:50.463Z,96.45
2023-01-03T08:09:12.116Z,92.80
2023-01-03T08:14:14.537Z,96.16
2023-01-03T08:19:17.117Z,93.17
2023-01-03T08:24:19.513Z,89.61
2023-01-03T08:29:21.959Z,86.42
2023-01-03T08:34:30.110Z,85.58
2023-01-03T08:39:38.317Z,89.49
2023-01-03T08:44:41.675Z,89.34
2023-01-03T08:49:44.351Z,85.92
2023-01-03T08:54:47.209Z,82.67
2023-01-03T08:59:49.651Z,86.10
2023-01-03T09:04:52.047Z,86.65
2023-01-03T09:09:54.488Z,86.61
2023-01-03T09:14:56.993Z,89.68
2023-01-03T09:19:59.474Z,90.05
2023-01-03T09:25:02.263Z,87.50
2023-01-03T09:30:05.493Z,83.39
2023-01-03T09:35:08.809Z,79.19
2023-01-03T09:40:11.894Z,79.74
2023-01-03T09:45:19.251Z,81.30
2023-01-03T09:50:39.368Z,77.43
2023-01-03T09:56:18.370Z,80.38
2023-01-03T10:01:51.930Z,78.56
2023-01-03T10:07:03.339Z,76.96
2023-01-03T10:12:18.478Z,78.74
2023-01-03T10:17:34.316Z,77.23
2023-01-03T10:22:38.157Z,77.13
2023-01-03T10:28:06.777Z,76.04
2023-01-03T10:33:31.042Z,78.92
2023-01-03T10:38:38.417Z,86.63
2023-01-03T10:43:57.542Z,78.34
2023-01-03T10:49:27.787Z,80.01
2023-01-03T10:54:53.395Z,79.85
2023-01-03T10:59:55.436Z,79.57
2023-01-03T11:05:16.154Z,78.50
2023-01-03T11:10:19.636Z,75.54
2023-01-03T11:15:40.045Z,84.44
2023-01-03T11:21:17.836Z,77.76
2023-01-03T11:26:45.386Z,58.02
2023-01-03T11:32:10.927Z,51.32
2023-01-03T11:37:27.365Z,46.79
2023-01-03T11:42:55.113Z,42.27
2023-01-03T11:48:22.562Z,40.51
2023-01-03T11:53:44.078Z,37.71
2023-01-03T11:58:56.319Z,36.56
2023-01-03T12:04:20.417Z,37.14
2023-01-03T12:09:39.341Z,37.20
2023-01-03T12:15:12.297Z,36.69
2023-01-03T12:20:32.221Z,36.48
2023-01-03T12:25:42.438Z,35.78
2023-01-03T12:31:05.498Z,37.29
2023-01-03T12:36:45.262Z,34.87
2023-01-03T12:42:17.435Z,36.05
2023-01-03T12:47:30.796Z,37.01
2023-01-03T12:52:35.409Z,46.00
2023-01-03T12:57:49.715Z,48.34
2023-01-03T13:03:02.318Z,49.07
2023-01-03T13:08:12.154Z,52.29
2023-01-03T13:13:19.430Z,53.86
2023-01-03T13:18:21.474Z,56.25
2023-01-03T13:23:56.323Z,56.65
2023-01-03T13:29:35.334Z,59.05
2023-01-03T13:34:37.525Z,60.46
2023-01-03T13:39:47.974Z,57.88
2023-01-03T13:44:51.254Z,57.86
2023-01-03T13:49:54.204Z,55.05
2023-01-03T13:54:59.119Z,54.72
2023-01-03T14:00:14.072Z,55.49
2023-01-03T14:05:38.060Z,56.06
2023-01-03T14:11:16.583Z,54.88
2023-01-03T14:16:43.340Z,56.44
2023-01-03T14:22:30.374Z,58.25
2023-01-03T14:27:40.545Z,58.10
2023-01-03T14:32:43.083Z,57.28
2023-01-03T14:37:47.362Z,58.39
2023-01-03T14:42:49.772Z,57.54
2023-01-03T14:47:55.290Z,57.11
2023-01-03T14:53:01.649Z,57.64
2023-01-03T14:58:31.073Z,59.68
2023-01-03T15:03:43.636Z,60.30
2023-01-03T15:08:47.770Z,60.99
2023-01-03T15:13:55.708Z,61.46
2023-01-03T15:19:18.780Z,61.32
2023-01-03T15:24:23.850Z,62.72
2023-01-03T15:29:43.020Z,63.44
2023-01-03T15:34:45.840Z,64.94
2023-01-03T15:39:54.733Z,65.70
2023-01-03T15:44:57.789Z,65.91
2023-01-03T15:50:02.944Z,66.33
2023-01-03T15:55:05.842Z,68.15
2023-01-03T16:00:16.118Z,69.07
2023-01-03T16:05:22.418Z,69.68
2023-01-03T16:10:25.216Z,72.03
2023-01-03T16:15:28.529Z,70.13
2023-01-03T16:20:33.249Z,71.38
2023-01-03T16:25:35.809Z,70.38
2023-01-03T16:30:38.206Z,70.69
2023-01-03T16:35:40.619Z,73.63
2023-01-03T16:40:45.073Z,73.00
2023-01-03T16:45:48.194Z,73.09
2023-01-03T16:50:53.396Z,73.80
2023-01-03T16:55:56.366Z,75.29
2023-01-03T17:00:58.889Z,76.52
2023-01-03T17:06:01.902Z,77.31
2023-01-03T17:11:06.813Z,79.10
2023-01-03T17:16:15.536Z,82.10
2023-01-03T17:21:27.389Z,79.29
2023-01-03T17:26:33.118Z,80.25
2023-01-03T17:31:35.905Z,80.08
2023-01-03T17:36:38.691Z,80.11
2023-01-03T17:42:00.039Z,82.15
2023-01-03T17:47:34.470Z,80.03
2023-01-03T17:52:38.831Z,83.70
2023-01-03T17:57:41.370Z,86.06
2023-01-03T18:02:44.265Z,80.49
2023-01-03T18:07:47.096Z,86.21
2023-01-03T18:12:49.633Z,81.80
2023-01-03T18:17:52.654Z,85.34
2023-01-03T18:22:55.218Z,83.87
2023-01-03T18:28:01.684Z,88.74
2023-01-03T18:33:04.454Z,91.15
2023-01-03T18:38:06.943Z,91.92
2023-01-03T18:43:13.794Z,83.19
2023-01-03T18:48:19.019Z,96.94
2023-01-03T18:53:28.742Z,88.97
2023-01-03T18:58:37.686Z,92.73
2023-01-03T19:03:41.513Z,89.34
2023-01-03T19:08:44.678Z,85.80
2023-01-03T19:13:54.839Z,85.37
2023-01-03T19:18:57.993Z,86.02
2023-01-03T19:24:15.680Z,82.67
2023-01-03T19:29:37.406Z,81.88
2023-01-03T19:34:39.855Z,81.70
2023-01-03T19:39:42.635Z,85.20
2023-01-03T19:44:45.561Z,91.79
2023-01-03T19:49:49.030Z,87.10
2023-01-03T19:54:52.163Z,95.97
2023-01-03T19:59:58.453Z,84.83
2023-01-03T20:05:01.825Z,98.52
2023-01-03T20:10:04.894Z,96.24
2023-01-03T20:15:19.928Z,100.00
2023-01-03T20:20:25.422Z,93.19
2023-01-03T20:25:32.988Z,91.22
2023-01-03T20:30:36.033Z,96.85
2023-01-03T20:41:01.965Z,89.84
2023-01-03T20:46:05.067Z,89.23
2023-01-03T20:51:10.076Z,89.48
2023-01-03T20:56:13.802Z,92.81
2023-01-03T21:01:16.377Z,93.78
2023-01-03T21:06:25.437Z,91.40
2023-01-03T21:11:30.778Z,88.09
2023-01-03T21:16:39.147Z,88.80
2023-01-03T21:21:43.824Z,88.06
2023-01-03T21:26:46.747Z,85.24
2023-01-03T21:31:53.478Z,86.86
2023-01-03T21:36:56.131Z,86.66
2023-01-03T21:42:17.266Z,85.51
2023-01-03T21:47:19.643Z,85.81
2023-01-03T21:52:22.372Z,86.57
2023-01-03T21:57:25.091Z,86.30
2023-01-03T22:02:46.278Z,86.76
2023-01-03T22:07:48.900Z,87.23
2023-01-03T22:12:57.297Z,89.22
2023-01-03T22:17:59.718Z,91.83
2023-01-03T22:23:02.385Z,91.59
2023-01-03T22:28:05.188Z,91.39
2023-01-03T22:33:07.765Z,92.20
2023-01-03T22:38:10.182Z,88.22
2023-01-03T22:43:12.659Z,88.96
2023-01-03T22:48:15.270Z,92.57
2023-01-03T22:53:17.902Z,94.41
2023-01-03T22:58:20.705Z,96.58
2023-01-03T23:03:23.225Z,98.87
2023-01-03T23:08:25.597Z,100.00
2023-01-03T23:13:28.002Z,100.00
2023-01-03T23:18:33.752Z,100.00
2023-01-03T23:23:36.336Z,100.00
2023-01-03T23:28:38.726Z,100.00
2023-01-03T23:33:41.270Z,100.00
2023-01-03T23:38:43.737Z,100.00
2023-01-03T23:43:46.540Z,100.00
2023-01-03T23:48:53.677Z,100.00
2023-01-03T23:53:56.231Z,100.00
2023-01-03T23:58:58.752Z,100.00
